sensor_id;sensor_type;location;lat;lon;timestamp;P1;durP1;ratioP1;P2;durP2;ratioP2
24401;SDS011;12539;48.808;11.292;2022-08-19T00:00:17;21.67;;;19.30;;
24401;SDS011;12539;48.808;11.292;2022-08-19T00:02:44;17.55;;;15.57;;
24401;SDS011;12539;48.808;11.292;2022-08-19T00:05:10;19.23;;;17.23;;
24401;SDS011;12539;48.808;11.292;2022-08-19T00:07:37;18.85;;;17.02;;
24401;SDS011;12539;48.808;11.292;2022-08-19T00:10:05;20.70;;;18.60;;
24401;SDS011;12539;48.808;11.292;2022-08-19T00:12:31;22.00;;;19.40;;
24401;SDS011;12539;48.808;11.292;2022-08-19T00:14:57;21.10;;;19.00;;
24401;SDS011;12539;48.808;11.292;2022-08-19T00:17:23;13.77;;;12.40;;
24401;SDS011;12539;48.808;11.292;2022-08-19T00:19:49;15.43;;;12.82;;
24401;SDS011;12539;48.808;11.292;2022-08-19T00:22:14;12.63;;;11.43;;
24401;SDS011;12539;48.808;11.292;2022-08-19T00:24:42;15.93;;;13.93;;
24401;SDS011;12539;48.808;11.292;2022-08-19T00:27:08;21.38;;;19.20;;
24401;SDS011;12539;48.808;11.292;2022-08-19T00:29:34;19.08;;;16.88;;
24401;SDS011;12539;48.808;11.292;2022-08-19T00:31:59;17.48;;;15.52;;
24401;SDS011;12539;48.808;11.292;2022-08-19T00:34:25;21.75;;;19.25;;
24401;SDS011;12539;48.808;11.292;2022-08-19T00:36:54;14.60;;;13.10;;
24401;SDS011;12539;48.808;11.292;2022-08-19T00:39:21;19.85;;;17.67;;
24401;SDS011;12539;48.808;11.292;2022-08-19T00:41:48;15.32;;;13.80;;
24401;SDS011;12539;48.808;11.292;2022-08-19T00:44:16;23.83;;;19.30;;
24401;SDS011;12539;48.808;11.292;2022-08-19T00:46:50;21.90;;;19.70;;
24401;SDS011;12539;48.808;11.292;2022-08-19T00:51:50;15.30;;;13.75;;
24401;SDS011;12539;48.808;11.292;2022-08-19T00:54:20;11.90;;;10.60;;
24401;SDS011;12539;48.808;11.292;2022-08-19T00:56:46;21.60;;;19.25;;
24401;SDS011;12539;48.808;11.292;2022-08-19T00:59:13;10.88;;;9.85;;
24401;SDS011;12539;48.808;11.292;2022-08-19T01:01:41;8.75;;;7.95;;
24401;SDS011;12539;48.808;11.292;2022-08-19T01:04:08;16.85;;;15.15;;
24401;SDS011;12539;48.808;11.292;2022-08-19T01:06:38;14.15;;;12.65;;
24401;SDS011;12539;48.808;11.292;2022-08-19T01:09:08;20.23;;;18.05;;
24401;SDS011;12539;48.808;11.292;2022-08-19T01:11:36;26.35;;;19.58;;
24401;SDS011;12539;48.808;11.292;2022-08-19T01:14:06;15.52;;;14.00;;
24401;SDS011;12539;48.808;11.292;2022-08-19T01:16:33;16.65;;;14.95;;
24401;SDS011;12539;48.808;11.292;2022-08-19T01:19:00;20.42;;;18.15;;
24401;SDS011;12539;48.808;11.292;2022-08-19T01:21:37;16.98;;;15.23;;
24401;SDS011;12539;48.808;11.292;2022-08-19T01:24:08;19.98;;;17.58;;
24401;SDS011;12539;48.808;11.292;2022-08-19T01:26:38;20.50;;;18.40;;
24401;SDS011;12539;48.808;11.292;2022-08-19T01:29:06;19.20;;;17.13;;
24401;SDS011;12539;48.808;11.292;2022-08-19T01:31:33;20.75;;;18.55;;
24401;SDS011;12539;48.808;11.292;2022-08-19T01:33:59;21.17;;;18.95;;
24401;SDS011;12539;48.808;11.292;2022-08-19T01:36:31;16.05;;;14.38;;
24401;SDS011;12539;48.808;11.292;2022-08-19T01:39:12;17.08;;;15.30;;
24401;SDS011;12539;48.808;11.292;2022-08-19T01:41:40;13.52;;;12.18;;
24401;SDS011;12539;48.808;11.292;2022-08-19T01:44:06;16.40;;;14.45;;
24401;SDS011;12539;48.808;11.292;2022-08-19T01:46:33;16.02;;;14.35;;
24401;SDS011;12539;48.808;11.292;2022-08-19T01:49:00;15.32;;;13.82;;
24401;SDS011;12539;48.808;11.292;2022-08-19T01:51:26;19.90;;;17.85;;
24401;SDS011;12539;48.808;11.292;2022-08-19T01:53:52;19.63;;;17.67;;
24401;SDS011;12539;48.808;11.292;2022-08-19T01:56:19;18.60;;;16.67;;
24401;SDS011;12539;48.808;11.292;2022-08-19T01:58:47;7.88;;;7.18;;
24401;SDS011;12539;48.808;11.292;2022-08-19T02:01:18;19.77;;;17.50;;
24401;SDS011;12539;48.808;11.292;2022-08-19T02:03:44;19.05;;;17.15;;
24401;SDS011;12539;48.808;11.292;2022-08-19T02:06:10;12.13;;;10.93;;
24401;SDS011;12539;48.808;11.292;2022-08-19T02:08:37;15.45;;;13.95;;
24401;SDS011;12539;48.808;11.292;2022-08-19T02:11:03;16.15;;;14.43;;
24401;SDS011;12539;48.808;11.292;2022-08-19T02:13:30;18.95;;;16.40;;
24401;SDS011;12539;48.808;11.292;2022-08-19T02:15:56;19.13;;;17.13;;
24401;SDS011;12539;48.808;11.292;2022-08-19T02:18:23;19.25;;;17.20;;
24401;SDS011;12539;48.808;11.292;2022-08-19T02:20:48;12.60;;;11.43;;
24401;SDS011;12539;48.808;11.292;2022-08-19T02:23:14;20.13;;;17.98;;
24401;SDS011;12539;48.808;11.292;2022-08-19T02:25:42;18.63;;;16.63;;
24401;SDS011;12539;48.808;11.292;2022-08-19T02:28:11;10.80;;;9.70;;
24401;SDS011;12539;48.808;11.292;2022-08-19T02:30:37;15.77;;;14.13;;
24401;SDS011;12539;48.808;11.292;2022-08-19T02:33:05;17.55;;;12.75;;
24401;SDS011;12539;48.808;11.292;2022-08-19T02:35:30;21.58;;;19.38;;
24401;SDS011;12539;48.808;11.292;2022-08-19T02:37:56;22.95;;;19.38;;
24401;SDS011;12539;48.808;11.292;2022-08-19T02:40:40;20.55;;;17.77;;
24401;SDS011;12539;48.808;11.292;2022-08-19T02:43:14;15.68;;;14.13;;
24401;SDS011;12539;48.808;11.292;2022-08-19T02:45:40;25.00;;;20.65;;
24401;SDS011;12539;48.808;11.292;2022-08-19T02:48:06;19.08;;;17.08;;
24401;SDS011;12539;48.808;11.292;2022-08-19T02:50:32;17.48;;;15.63;;
24401;SDS011;12539;48.808;11.292;2022-08-19T02:52:58;12.40;;;11.20;;
24401;SDS011;12539;48.808;11.292;2022-08-19T02:55:24;15.82;;;14.18;;
24401;SDS011;12539;48.808;11.292;2022-08-19T02:57:49;19.42;;;17.40;;
24401;SDS011;12539;48.808;11.292;2022-08-19T03:00:15;20.98;;;18.67;;
24401;SDS011;12539;48.808;11.292;2022-08-19T03:02:41;20.73;;;18.63;;
24401;SDS011;12539;48.808;11.292;2022-08-19T03:05:08;18.70;;;16.77;;
24401;SDS011;12539;48.808;11.292;2022-08-19T03:07:34;11.70;;;10.57;;
24401;SDS011;12539;48.808;11.292;2022-08-19T03:10:01;21.95;;;18.35;;
24401;SDS011;12539;48.808;11.292;2022-08-19T03:12:27;11.00;;;9.90;;
24401;SDS011;12539;48.808;11.292;2022-08-19T03:14:53;11.88;;;10.75;;
24401;SDS011;12539;48.808;11.292;2022-08-19T03:17:19;16.98;;;15.27;;
24401;SDS011;12539;48.808;11.292;2022-08-19T03:19:45;12.57;;;10.85;;
24401;SDS011;12539;48.808;11.292;2022-08-19T03:22:11;21.00;;;18.65;;
24401;SDS011;12539;48.808;11.292;2022-08-19T03:24:37;19.55;;;16.63;;
24401;SDS011;12539;48.808;11.292;2022-08-19T03:27:03;20.55;;;18.38;;
24401;SDS011;12539;48.808;11.292;2022-08-19T03:29:30;17.52;;;15.73;;
24401;SDS011;12539;48.808;11.292;2022-08-19T03:31:57;21.58;;;18.15;;
24401;SDS011;12539;48.808;11.292;2022-08-19T03:34:29;15.07;;;13.27;;
24401;SDS011;12539;48.808;11.292;2022-08-19T03:36:58;13.80;;;12.23;;
24401;SDS011;12539;48.808;11.292;2022-08-19T03:39:25;15.05;;;13.45;;
24401;SDS011;12539;48.808;11.292;2022-08-19T03:41:52;15.05;;;13.55;;
24401;SDS011;12539;48.808;11.292;2022-08-19T03:44:21;13.43;;;12.10;;
24401;SDS011;12539;48.808;11.292;2022-08-19T03:46:49;24.55;;;20.25;;
24401;SDS011;12539;48.808;11.292;2022-08-19T03:49:17;25.23;;;22.55;;
24401;SDS011;12539;48.808;11.292;2022-08-19T03:51:45;21.33;;;19.05;;
24401;SDS011;12539;48.808;11.292;2022-08-19T03:54:13;22.70;;;20.27;;
24401;SDS011;12539;48.808;11.292;2022-08-19T03:56:41;21.20;;;18.90;;
24401;SDS011;12539;48.808;11.292;2022-08-19T03:59:09;18.67;;;16.13;;
24401;SDS011;12539;48.808;11.292;2022-08-19T04:01:38;21.70;;;19.00;;
24401;SDS011;12539;48.808;11.292;2022-08-19T04:04:04;24.10;;;19.10;;
24401;SDS011;12539;48.808;11.292;2022-08-19T04:06:33;12.55;;;11.27;;
24401;SDS011;12539;48.808;11.292;2022-08-19T04:09:01;12.35;;;11.15;;
24401;SDS011;12539;48.808;11.292;2022-08-19T04:11:40;24.60;;;21.25;;
24401;SDS011;12539;48.808;11.292;2022-08-19T04:14:12;12.90;;;11.60;;
24401;SDS011;12539;48.808;11.292;2022-08-19T04:16:41;25.30;;;21.27;;
24401;SDS011;12539;48.808;11.292;2022-08-19T04:19:09;12.10;;;10.95;;
24401;SDS011;12539;48.808;11.292;2022-08-19T04:21:35;20.80;;;17.95;;
24401;SDS011;12539;48.808;11.292;2022-08-19T04:24:01;12.63;;;11.32;;
24401;SDS011;12539;48.808;11.292;2022-08-19T04:26:29;23.35;;;20.83;;
24401;SDS011;12539;48.808;11.292;2022-08-19T04:28:58;21.50;;;18.88;;
24401;SDS011;12539;48.808;11.292;2022-08-19T04:31:25;15.05;;;13.52;;
24401;SDS011;12539;48.808;11.292;2022-08-19T04:33:58;15.65;;;14.00;;
24401;SDS011;12539;48.808;11.292;2022-08-19T04:36:30;16.45;;;14.82;;
24401;SDS011;12539;48.808;11.292;2022-08-19T04:38:58;13.98;;;12.60;;
24401;SDS011;12539;48.808;11.292;2022-08-19T04:41:26;21.08;;;18.92;;
24401;SDS011;12539;48.808;11.292;2022-08-19T04:44:11;15.90;;;13.95;;
24401;SDS011;12539;48.808;11.292;2022-08-19T04:46:37;20.50;;;15.52;;
24401;SDS011;12539;48.808;11.292;2022-08-19T04:49:05;15.85;;;14.27;;
24401;SDS011;12539;48.808;11.292;2022-08-19T04:51:32;20.75;;;18.02;;
24401;SDS011;12539;48.808;11.292;2022-08-19T04:53:59;23.90;;;21.38;;
24401;SDS011;12539;48.808;11.292;2022-08-19T04:56:26;21.33;;;19.02;;
24401;SDS011;12539;48.808;11.292;2022-08-19T04:58:53;23.02;;;18.10;;
24401;SDS011;12539;48.808;11.292;2022-08-19T05:01:21;22.25;;;19.65;;
24401;SDS011;12539;48.808;11.292;2022-08-19T05:03:49;23.17;;;17.92;;
24401;SDS011;12539;48.808;11.292;2022-08-19T05:06:15;21.30;;;19.02;;
24401;SDS011;12539;48.808;11.292;2022-08-19T05:08:43;21.15;;;18.88;;
24401;SDS011;12539;48.808;11.292;2022-08-19T05:13:37;29.45;;;21.50;;
24401;SDS011;12539;48.808;11.292;2022-08-19T05:16:03;25.77;;;22.90;;
24401;SDS011;12539;48.808;11.292;2022-08-19T05:18:29;26.10;;;21.77;;
24401;SDS011;12539;48.808;11.292;2022-08-19T05:21:14;25.75;;;22.30;;
24401;SDS011;12539;48.808;11.292;2022-08-19T05:24:01;22.48;;;19.05;;
24401;SDS011;12539;48.808;11.292;2022-08-19T05:26:27;21.20;;;19.00;;
24401;SDS011;12539;48.808;11.292;2022-08-19T05:28:53;25.85;;;22.90;;
24401;SDS011;12539;48.808;11.292;2022-08-19T05:31:19;23.75;;;20.63;;
24401;SDS011;12539;48.808;11.292;2022-08-19T05:33:45;24.58;;;21.83;;
24401;SDS011;12539;48.808;11.292;2022-08-19T05:36:11;23.77;;;21.27;;
24401;SDS011;12539;48.808;11.292;2022-08-19T05:38:38;19.73;;;17.67;;
24401;SDS011;12539;48.808;11.292;2022-08-19T05:41:10;22.33;;;20.02;;
24401;SDS011;12539;48.808;11.292;2022-08-19T05:43:37;24.70;;;22.10;;
24401;SDS011;12539;48.808;11.292;2022-08-19T05:46:04;23.35;;;20.95;;
24401;SDS011;12539;48.808;11.292;2022-08-19T05:48:31;23.75;;;21.38;;
24401;SDS011;12539;48.808;11.292;2022-08-19T05:51:04;18.95;;;16.90;;
24401;SDS011;12539;48.808;11.292;2022-08-19T05:53:31;25.23;;;22.52;;
24401;SDS011;12539;48.808;11.292;2022-08-19T05:56:03;26.25;;;23.45;;
24401;SDS011;12539;48.808;11.292;2022-08-19T05:58:33;27.25;;;23.42;;
24401;SDS011;12539;48.808;11.292;2022-08-19T06:00:59;26.30;;;23.38;;
24401;SDS011;12539;48.808;11.292;2022-08-19T06:03:29;19.70;;;17.70;;
24401;SDS011;12539;48.808;11.292;2022-08-19T06:05:59;23.20;;;20.58;;
24401;SDS011;12539;48.808;11.292;2022-08-19T06:08:26;20.00;;;17.85;;
24401;SDS011;12539;48.808;11.292;2022-08-19T06:10:52;26.52;;;22.92;;
24401;SDS011;12539;48.808;11.292;2022-08-19T06:13:18;24.10;;;21.50;;
24401;SDS011;12539;48.808;11.292;2022-08-19T06:15:44;21.60;;;18.63;;
24401;SDS011;12539;48.808;11.292;2022-08-19T06:18:12;21.65;;;19.38;;
24401;SDS011;12539;48.808;11.292;2022-08-19T06:20:39;21.42;;;19.02;;
24401;SDS011;12539;48.808;11.292;2022-08-19T06:23:05;22.92;;;20.52;;
24401;SDS011;12539;48.808;11.292;2022-08-19T06:25:31;26.20;;;22.00;;
24401;SDS011;12539;48.808;11.292;2022-08-19T06:27:56;25.48;;;22.73;;
24401;SDS011;12539;48.808;11.292;2022-08-19T06:30:22;26.20;;;22.52;;
24401;SDS011;12539;48.808;11.292;2022-08-19T06:32:48;22.92;;;20.52;;
24401;SDS011;12539;48.808;11.292;2022-08-19T06:35:14;26.92;;;21.38;;
24401;SDS011;12539;48.808;11.292;2022-08-19T06:37:40;21.23;;;18.83;;
24401;SDS011;12539;48.808;11.292;2022-08-19T06:40:06;20.85;;;18.60;;
24401;SDS011;12539;48.808;11.292;2022-08-19T06:42:33;26.13;;;23.33;;
24401;SDS011;12539;48.808;11.292;2022-08-19T06:45:00;18.08;;;16.23;;
24401;SDS011;12539;48.808;11.292;2022-08-19T06:47:29;21.85;;;19.65;;
24401;SDS011;12539;48.808;11.292;2022-08-19T06:49:56;14.85;;;13.43;;
24401;SDS011;12539;48.808;11.292;2022-08-19T06:52:27;18.20;;;16.33;;
24401;SDS011;12539;48.808;11.292;2022-08-19T06:54:53;21.75;;;19.45;;
24401;SDS011;12539;48.808;11.292;2022-08-19T06:57:20;18.88;;;17.00;;
24401;SDS011;12539;48.808;11.292;2022-08-19T06:59:46;22.77;;;20.50;;
24401;SDS011;12539;48.808;11.292;2022-08-19T07:02:12;22.70;;;20.20;;
24401;SDS011;12539;48.808;11.292;2022-08-19T07:04:37;27.52;;;23.60;;
24401;SDS011;12539;48.808;11.292;2022-08-19T07:07:05;23.95;;;21.40;;
24401;SDS011;12539;48.808;11.292;2022-08-19T07:09:35;22.17;;;19.80;;
24401;SDS011;12539;48.808;11.292;2022-08-19T07:12:03;29.20;;;24.75;;
24401;SDS011;12539;48.808;11.292;2022-08-19T07:14:31;18.63;;;16.77;;
24401;SDS011;12539;48.808;11.292;2022-08-19T07:19:28;27.38;;;21.70;;
24401;SDS011;12539;48.808;11.292;2022-08-19T07:21:55;28.20;;;22.25;;
24401;SDS011;12539;48.808;11.292;2022-08-19T07:24:21;24.63;;;21.90;;
24401;SDS011;12539;48.808;11.292;2022-08-19T07:26:49;32.03;;;26.23;;
24401;SDS011;12539;48.808;11.292;2022-08-19T07:29:16;25.63;;;22.30;;
24401;SDS011;12539;48.808;11.292;2022-08-19T07:31:42;36.83;;;27.92;;
24401;SDS011;12539;48.808;11.292;2022-08-19T07:34:09;31.92;;;24.05;;
24401;SDS011;12539;48.808;11.292;2022-08-19T07:36:37;36.72;;;26.95;;
24401;SDS011;12539;48.808;11.292;2022-08-19T07:39:17;34.03;;;25.92;;
24401;SDS011;12539;48.808;11.292;2022-08-19T07:41:45;28.40;;;23.20;;
24401;SDS011;12539;48.808;11.292;2022-08-19T07:44:12;20.35;;;18.25;;
24401;SDS011;12539;48.808;11.292;2022-08-19T07:46:39;31.42;;;25.58;;
24401;SDS011;12539;48.808;11.292;2022-08-19T07:49:09;26.42;;;22.13;;
24401;SDS011;12539;48.808;11.292;2022-08-19T07:51:50;34.33;;;27.25;;
24401;SDS011;12539;48.808;11.292;2022-08-19T07:54:21;30.00;;;23.58;;
24401;SDS011;12539;48.808;11.292;2022-08-19T07:56:48;25.80;;;20.75;;
24401;SDS011;12539;48.808;11.292;2022-08-19T07:59:16;38.63;;;29.10;;
24401;SDS011;12539;48.808;11.292;2022-08-19T08:01:43;33.70;;;26.08;;
24401;SDS011;12539;48.808;11.292;2022-08-19T08:04:09;24.58;;;20.48;;
24401;SDS011;12539;48.808;11.292;2022-08-19T08:06:54;33.67;;;25.08;;
24401;SDS011;12539;48.808;11.292;2022-08-19T08:09:40;26.92;;;21.70;;
24401;SDS011;12539;48.808;11.292;2022-08-19T08:14:40;29.02;;;22.75;;
24401;SDS011;12539;48.808;11.292;2022-08-19T08:17:11;39.00;;;28.50;;
24401;SDS011;12539;48.808;11.292;2022-08-19T08:19:37;26.20;;;21.95;;
24401;SDS011;12539;48.808;11.292;2022-08-19T08:22:06;31.75;;;24.92;;
24401;SDS011;12539;48.808;11.292;2022-08-19T08:24:33;33.42;;;26.05;;
24401;SDS011;12539;48.808;11.292;2022-08-19T08:27:01;29.33;;;23.60;;
24401;SDS011;12539;48.808;11.292;2022-08-19T08:29:29;26.38;;;22.05;;
24401;SDS011;12539;48.808;11.292;2022-08-19T08:31:56;30.50;;;23.95;;
24401;SDS011;12539;48.808;11.292;2022-08-19T08:34:21;29.00;;;24.20;;
24401;SDS011;12539;48.808;11.292;2022-08-19T08:36:47;28.52;;;21.50;;
24401;SDS011;12539;48.808;11.292;2022-08-19T08:39:17;25.73;;;19.65;;
24401;SDS011;12539;48.808;11.292;2022-08-19T08:45:02;33.63;;;23.67;;
24401;SDS011;12539;48.808;11.292;2022-08-19T08:47:09;30.67;;;23.90;;
24401;SDS011;12539;48.808;11.292;2022-08-19T08:49:56;26.08;;;20.92;;
24401;SDS011;12539;48.808;11.292;2022-08-19T08:52:29;21.30;;;16.88;;
24401;SDS011;12539;48.808;11.292;2022-08-19T08:55:00;27.73;;;21.63;;
24401;SDS011;12539;48.808;11.292;2022-08-19T09:00:04;20.73;;;17.10;;
24401;SDS011;12539;48.808;11.292;2022-08-19T09:02:33;26.02;;;21.92;;
24401;SDS011;12539;48.808;11.292;2022-08-19T09:04:59;23.10;;;18.77;;
24401;SDS011;12539;48.808;11.292;2022-08-19T09:07:34;23.25;;;19.48;;
24401;SDS011;12539;48.808;11.292;2022-08-19T09:13:12;26.08;;;21.33;;
24401;SDS011;12539;48.808;11.292;2022-08-19T09:16:07;24.15;;;19.35;;
24401;SDS011;12539;48.808;11.292;2022-08-19T09:18:40;24.75;;;20.77;;
24401;SDS011;12539;48.808;11.292;2022-08-19T09:21:12;21.00;;;17.25;;
24401;SDS011;12539;48.808;11.292;2022-08-19T09:23:39;30.33;;;23.40;;
24401;SDS011;12539;48.808;11.292;2022-08-19T09:26:09;19.25;;;15.88;;
24401;SDS011;12539;48.808;11.292;2022-08-19T09:28:39;23.98;;;19.98;;
24401;SDS011;12539;48.808;11.292;2022-08-19T09:31:08;30.13;;;24.23;;
24401;SDS011;12539;48.808;11.292;2022-08-19T09:33:41;15.70;;;14.10;;
24401;SDS011;12539;48.808;11.292;2022-08-19T09:36:09;23.80;;;20.90;;
24401;SDS011;12539;48.808;11.292;2022-08-19T09:38:38;25.77;;;21.42;;
24401;SDS011;12539;48.808;11.292;2022-08-19T09:41:10;22.85;;;20.35;;
24401;SDS011;12539;48.808;11.292;2022-08-19T09:43:38;16.73;;;14.68;;
24401;SDS011;12539;48.808;11.292;2022-08-19T09:46:05;22.80;;;19.02;;
24401;SDS011;12539;48.808;11.292;2022-08-19T09:48:32;25.83;;;20.85;;
24401;SDS011;12539;48.808;11.292;2022-08-19T09:51:05;26.70;;;21.73;;
24401;SDS011;12539;48.808;11.292;2022-08-19T09:53:33;24.30;;;20.00;;
24401;SDS011;12539;48.808;11.292;2022-08-19T09:55:59;24.05;;;21.35;;
24401;SDS011;12539;48.808;11.292;2022-08-19T09:58:26;20.83;;;18.08;;
24401;SDS011;12539;48.808;11.292;2022-08-19T10:00:57;20.92;;;17.52;;
24401;SDS011;12539;48.808;11.292;2022-08-19T10:03:23;23.15;;;19.27;;
24401;SDS011;12539;48.808;11.292;2022-08-19T10:05:49;20.65;;;18.50;;
24401;SDS011;12539;48.808;11.292;2022-08-19T10:08:23;13.85;;;12.45;;
24401;SDS011;12539;48.808;11.292;2022-08-19T10:10:51;17.85;;;15.40;;
24401;SDS011;12539;48.808;11.292;2022-08-19T10:13:20;19.15;;;17.02;;
24401;SDS011;12539;48.808;11.292;2022-08-19T10:15:52;18.65;;;16.38;;
24401;SDS011;12539;48.808;11.292;2022-08-19T10:18:19;18.90;;;16.95;;
24401;SDS011;12539;48.808;11.292;2022-08-19T10:20:46;18.13;;;16.15;;
24401;SDS011;12539;48.808;11.292;2022-08-19T10:23:13;19.38;;;17.38;;
24401;SDS011;12539;48.808;11.292;2022-08-19T10:25:40;18.80;;;16.80;;
24401;SDS011;12539;48.808;11.292;2022-08-19T10:28:06;18.92;;;17.10;;
24401;SDS011;12539;48.808;11.292;2022-08-19T10:30:33;19.40;;;17.17;;
24401;SDS011;12539;48.808;11.292;2022-08-19T10:33:00;20.02;;;17.67;;
24401;SDS011;12539;48.808;11.292;2022-08-19T10:35:26;17.73;;;15.88;;
24401;SDS011;12539;48.808;11.292;2022-08-19T10:37:54;18.70;;;16.60;;
24401;SDS011;12539;48.808;11.292;2022-08-19T10:40:24;15.87;;;14.03;;
24401;SDS011;12539;48.808;11.292;2022-08-19T10:42:51;21.55;;;19.17;;
24401;SDS011;12539;48.808;11.292;2022-08-19T10:45:17;16.60;;;15.00;;
24401;SDS011;12539;48.808;11.292;2022-08-19T10:47:43;14.85;;;13.07;;
24401;SDS011;12539;48.808;11.292;2022-08-19T10:50:09;16.73;;;14.85;;
24401;SDS011;12539;48.808;11.292;2022-08-19T10:52:53;17.10;;;15.25;;
24401;SDS011;12539;48.808;11.292;2022-08-19T10:55:20;20.35;;;17.65;;
24401;SDS011;12539;48.808;11.292;2022-08-19T10:58:13;20.38;;;18.23;;
24401;SDS011;12539;48.808;11.292;2022-08-19T11:00:40;20.73;;;18.45;;
24401;SDS011;12539;48.808;11.292;2022-08-19T11:03:08;21.92;;;19.42;;
24401;SDS011;12539;48.808;11.292;2022-08-19T11:05:34;25.52;;;20.83;;
24401;SDS011;12539;48.808;11.292;2022-08-19T11:08:00;37.30;;;23.45;;
24401;SDS011;12539;48.808;11.292;2022-08-19T11:10:26;29.80;;;22.20;;
24401;SDS011;12539;48.808;11.292;2022-08-19T11:12:51;34.20;;;22.40;;
24401;SDS011;12539;48.808;11.292;2022-08-19T11:15:19;36.03;;;22.90;;
24401;SDS011;12539;48.808;11.292;2022-08-19T11:17:45;30.15;;;19.80;;
24401;SDS011;12539;48.808;11.292;2022-08-19T11:20:11;30.60;;;22.33;;
24401;SDS011;12539;48.808;11.292;2022-08-19T11:22:38;34.70;;;24.95;;
24401;SDS011;12539;48.808;11.292;2022-08-19T11:25:05;31.88;;;23.98;;
24401;SDS011;12539;48.808;11.292;2022-08-19T11:27:32;30.90;;;23.75;;
24401;SDS011;12539;48.808;11.292;2022-08-19T11:29:58;30.80;;;21.48;;
24401;SDS011;12539;48.808;11.292;2022-08-19T11:32:25;48.65;;;26.05;;
24401;SDS011;12539;48.808;11.292;2022-08-19T11:34:51;38.25;;;24.55;;
24401;SDS011;12539;48.808;11.292;2022-08-19T11:37:17;36.55;;;24.77;;
24401;SDS011;12539;48.808;11.292;2022-08-19T11:39:42;42.05;;;27.13;;
24401;SDS011;12539;48.808;11.292;2022-08-19T11:42:08;40.67;;;27.13;;
24401;SDS011;12539;48.808;11.292;2022-08-19T11:44:52;40.47;;;25.67;;
24401;SDS011;12539;48.808;11.292;2022-08-19T11:47:18;37.95;;;25.85;;
24401;SDS011;12539;48.808;11.292;2022-08-19T11:49:45;38.72;;;27.08;;
24401;SDS011;12539;48.808;11.292;2022-08-19T11:52:16;37.25;;;25.20;;
24401;SDS011;12539;48.808;11.292;2022-08-19T11:54:41;40.85;;;25.92;;
24401;SDS011;12539;48.808;11.292;2022-08-19T11:57:07;35.97;;;25.05;;
24401;SDS011;12539;48.808;11.292;2022-08-19T11:59:33;38.67;;;25.48;;
24401;SDS011;12539;48.808;11.292;2022-08-19T12:01:58;38.25;;;27.80;;
24401;SDS011;12539;48.808;11.292;2022-08-19T12:04:24;37.42;;;25.63;;
24401;SDS011;12539;48.808;11.292;2022-08-19T12:06:50;36.40;;;26.13;;
24401;SDS011;12539;48.808;11.292;2022-08-19T12:09:16;34.70;;;23.85;;
24401;SDS011;12539;48.808;11.292;2022-08-19T12:11:42;37.55;;;27.17;;
24401;SDS011;12539;48.808;11.292;2022-08-19T12:14:09;37.95;;;26.52;;
24401;SDS011;12539;48.808;11.292;2022-08-19T12:16:39;40.75;;;26.27;;
24401;SDS011;12539;48.808;11.292;2022-08-19T12:19:06;39.10;;;26.90;;
24401;SDS011;12539;48.808;11.292;2022-08-19T12:21:32;37.05;;;24.95;;
24401;SDS011;12539;48.808;11.292;2022-08-19T12:24:00;40.50;;;27.92;;
24401;SDS011;12539;48.808;11.292;2022-08-19T12:26:27;34.67;;;25.85;;
24401;SDS011;12539;48.808;11.292;2022-08-19T12:28:56;36.58;;;24.75;;
24401;SDS011;12539;48.808;11.292;2022-08-19T12:31:24;37.42;;;24.83;;
24401;SDS011;12539;48.808;11.292;2022-08-19T12:33:50;37.72;;;26.13;;
24401;SDS011;12539;48.808;11.292;2022-08-19T12:36:17;51.00;;;29.10;;
24401;SDS011;12539;48.808;11.292;2022-08-19T12:38:43;37.67;;;24.73;;
24401;SDS011;12539;48.808;11.292;2022-08-19T12:41:10;53.47;;;26.73;;
24401;SDS011;12539;48.808;11.292;2022-08-19T12:43:37;62.38;;;34.45;;
24401;SDS011;12539;48.808;11.292;2022-08-19T12:46:04;73.25;;;35.40;;
24401;SDS011;12539;48.808;11.292;2022-08-19T12:48:31;47.80;;;28.25;;
24401;SDS011;12539;48.808;11.292;2022-08-19T12:50:58;43.63;;;29.27;;
24401;SDS011;12539;48.808;11.292;2022-08-19T12:53:23;41.58;;;25.67;;
24401;SDS011;12539;48.808;11.292;2022-08-19T12:55:56;42.92;;;28.48;;
24401;SDS011;12539;48.808;11.292;2022-08-19T12:58:23;44.65;;;26.73;;
24401;SDS011;12539;48.808;11.292;2022-08-19T13:00:49;53.30;;;30.60;;
24401;SDS011;12539;48.808;11.292;2022-08-19T13:03:14;50.53;;;31.23;;
24401;SDS011;12539;48.808;11.292;2022-08-19T13:05:40;58.95;;;30.88;;
24401;SDS011;12539;48.808;11.292;2022-08-19T13:08:07;44.08;;;27.27;;
24401;SDS011;12539;48.808;11.292;2022-08-19T13:10:33;38.78;;;24.70;;
24401;SDS011;12539;48.808;11.292;2022-08-19T13:13:05;49.53;;;29.05;;
24401;SDS011;12539;48.808;11.292;2022-08-19T13:15:36;56.30;;;31.00;;
24401;SDS011;12539;48.808;11.292;2022-08-19T13:18:05;53.03;;;29.85;;
24401;SDS011;12539;48.808;11.292;2022-08-19T13:20:34;46.10;;;28.55;;
24401;SDS011;12539;48.808;11.292;2022-08-19T13:23:00;43.63;;;27.50;;
24401;SDS011;12539;48.808;11.292;2022-08-19T13:25:26;52.78;;;29.85;;
24401;SDS011;12539;48.808;11.292;2022-08-19T13:27:52;47.30;;;28.23;;
24401;SDS011;12539;48.808;11.292;2022-08-19T13:30:20;54.20;;;30.15;;
24401;SDS011;12539;48.808;11.292;2022-08-19T13:33:05;45.78;;;28.13;;
24401;SDS011;12539;48.808;11.292;2022-08-19T13:35:48;52.42;;;30.30;;
24401;SDS011;12539;48.808;11.292;2022-08-19T13:38:20;43.70;;;28.92;;
24401;SDS011;12539;48.808;11.292;2022-08-19T13:40:47;51.72;;;29.98;;
24401;SDS011;12539;48.808;11.292;2022-08-19T13:43:15;43.65;;;27.48;;
24401;SDS011;12539;48.808;11.292;2022-08-19T13:48:35;64.57;;;31.95;;
24401;SDS011;12539;48.808;11.292;2022-08-19T13:51:00;55.90;;;31.70;;
24401;SDS011;12539;48.808;11.292;2022-08-19T13:53:29;57.42;;;29.35;;
24401;SDS011;12539;48.808;11.292;2022-08-19T13:55:55;39.40;;;24.52;;
24401;SDS011;12539;48.808;11.292;2022-08-19T13:58:21;66.88;;;34.67;;
24401;SDS011;12539;48.808;11.292;2022-08-19T14:00:47;60.92;;;31.38;;
24401;SDS011;12539;48.808;11.292;2022-08-19T14:03:14;68.20;;;35.63;;
24401;SDS011;12539;48.808;11.292;2022-08-19T14:05:40;84.93;;;37.72;;
24401;SDS011;12539;48.808;11.292;2022-08-19T14:08:06;53.25;;;29.75;;
24401;SDS011;12539;48.808;11.292;2022-08-19T14:10:31;66.78;;;34.15;;
24401;SDS011;12539;48.808;11.292;2022-08-19T14:12:59;52.83;;;30.83;;
24401;SDS011;12539;48.808;11.292;2022-08-19T14:15:26;58.42;;;34.67;;
24401;SDS011;12539;48.808;11.292;2022-08-19T14:17:53;70.43;;;34.45;;
